Time;durP1;ratioP1;P1;durP2;ratioP2;P2;SDS_P1;SDS_P2;PMS_P1;PMS_P2;Temp;Humidity;BMP_temperature;BMP_pressure;BME280_temperature;BME280_humidity;BME280_pressure;Samples;Min_cycle;Max_cycle;Signal;HPM_P1;HPM_P2
2022/12/04 00:00:09;;;;;;;54.42;29.17;;;;;;;;;;5048321;28;20025;-87
2022/12/04 00:02:35;;;;;;;60.72;29.08;;;;;;;;;;5062764;28;20017;-84
2022/12/04 00:05:04;;;;;;;48.45;26.88;;;;;;;;;;5052134;28;20021;-85
2022/12/04 00:07:30;;;;;;;57.05;27.70;;;;;;;;;;5062852;28;20017;-86
2022/12/04 00:09:56;;;;;;;53.78;27.67;;;;;;;;;;5049641;28;20112;-86
2022/12/04 00:12:22;;;;;;;57.45;28.85;;;;;;;;;;5062711;28;20017;-85
2022/12/04 00:14:48;;;;;;;55.78;28.63;;;;;;;;;;5061069;28;20025;-86
2022/12/04 00:17:14;;;;;;;57.47;27.58;;;;;;;;;;5052625;28;20025;-85
2022/12/04 00:19:40;;;;;;;48.88;25.85;;;;;;;;;;5063318;28;20483;-84
2022/12/04 00:22:06;;;;;;;55.42;27.80;;;;;;;;;;5059057;28;20098;-86
2022/12/04 00:24:33;;;;;;;55.47;28.58;;;;;;;;;;5052985;28;20052;-86
2022/12/04 00:26:59;;;;;;;55.08;28.60;;;;;;;;;;5058137;28;20029;-86
2022/12/04 00:29:26;;;;;;;57.88;27.77;;;;;;;;;;5062208;28;20083;-86
2022/12/04 00:31:52;;;;;;;60.38;30.70;;;;;;;;;;5064514;28;20033;-86
2022/12/04 00:34:21;;;;;;;60.65;28.70;;;;;;;;;;5064610;28;20032;-87
2022/12/04 00:36:47;;;;;;;61.05;29.20;;;;;;;;;;5050225;28;20032;-84
2022/12/04 00:39:13;;;;;;;59.35;29.92;;;;;;;;;;5043903;28;20021;-85
2022/12/04 00:41:39;;;;;;;57.58;28.60;;;;;;;;;;5045854;28;20031;-85
2022/12/04 00:44:05;;;;;;;55.97;28.20;;;;;;;;;;5048312;28;20097;-85
2022/12/04 00:46:31;;;;;;;52.70;28.27;;;;;;;;;;5044990;28;20145;-86
2022/12/04 00:49:00;;;;;;;58.33;29.63;;;;;;;;;;5069394;28;20082;-85
2022/12/04 00:51:26;;;;;;;60.97;28.17;;;;;;;;;;5047091;28;20036;-86
2022/12/04 00:53:53;;;;;;;57.88;28.45;;;;;;;;;;5045469;28;20032;-85
2022/12/04 00:56:21;;;;;;;58.25;31.00;;;;;;;;;;5043775;28;20025;-86
2022/12/04 00:58:47;;;;;;;54.63;29.30;;;;;;;;;;5054702;28;20060;-86
2022/12/04 01:01:15;;;;;;;55.78;27.30;;;;;;;;;;5062897;28;20021;-85
2022/12/04 01:03:41;;;;;;;56.92;30.40;;;;;;;;;;5065331;28;20097;-87
2022/12/04 01:06:07;;;;;;;54.60;27.40;;;;;;;;;;5058744;28;20036;-85
2022/12/04 01:08:34;;;;;;;56.90;28.48;;;;;;;;;;5055414;28;20021;-86
2022/12/04 01:11:00;;;;;;;49.92;28.60;;;;;;;;;;5063489;28;20072;-87
2022/12/04 01:13:26;;;;;;;48.10;26.67;;;;;;;;;;5066584;28;20071;-86
2022/12/04 01:15:52;;;;;;;53.03;28.27;;;;;;;;;;5064234;28;20039;-86
2022/12/04 01:18:18;;;;;;;55.95;27.55;;;;;;;;;;5062837;28;20071;-87
2022/12/04 01:20:46;;;;;;;55.50;27.58;;;;;;;;;;5057782;28;20029;-86
2022/12/04 01:23:12;;;;;;;56.47;28.17;;;;;;;;;;5043812;28;20018;-87
2022/12/04 01:25:38;;;;;;;59.45;29.85;;;;;;;;;;5062061;28;20052;-86
2022/12/04 01:28:04;;;;;;;58.60;29.33;;;;;;;;;;5055762;28;20478;-87
2022/12/04 01:30:30;;;;;;;58.30;29.90;;;;;;;;;;5064528;28;20033;-85
2022/12/04 01:32:56;;;;;;;55.00;28.40;;;;;;;;;;5064040;28;20506;-85
2022/12/04 01:35:22;;;;;;;52.85;26.67;;;;;;;;;;5049796;28;20427;-85
2022/12/04 01:37:48;;;;;;;56.47;28.30;;;;;;;;;;5044973;28;20030;-86
2022/12/04 01:40:15;;;;;;;51.38;26.05;;;;;;;;;;5042727;28;20048;-85
2022/12/04 01:42:41;;;;;;;57.45;27.30;;;;;;;;;;5053210;28;20399;-86
2022/12/04 01:45:26;;;;;;;53.63;28.40;;;;;;;;;;5063438;28;20072;-85
2022/12/04 01:47:53;;;;;;;53.38;27.13;;;;;;;;;;5054558;28;20490;-85
2022/12/04 01:50:19;;;;;;;55.67;27.42;;;;;;;;;;5047119;28;20082;-83
2022/12/04 01:52:45;;;;;;;57.95;28.13;;;;;;;;;;5048911;28;20471;-84
2022/12/04 01:55:12;;;;;;;52.00;28.35;;;;;;;;;;5049386;28;20025;-85
2022/12/04 01:57:38;;;;;;;54.25;29.80;;;;;;;;;;5056243;28;20037;-84
2022/12/04 02:00:09;;;;;;;50.22;27.27;;;;;;;;;;5046816;28;20060;-84
2022/12/04 02:02:37;;;;;;;50.53;26.13;;;;;;;;;;5046600;28;20431;-83
2022/12/04 02:05:05;;;;;;;49.72;28.25;;;;;;;;;;5060746;28;20052;-84
2022/12/04 02:07:31;;;;;;;53.72;29.15;;;;;;;;;;5046008;28;20018;-84
2022/12/04 02:10:02;;;;;;;52.80;26.80;;;;;;;;;;5055848;28;20033;-84
2022/12/04 02:12:34;;;;;;;57.80;30.08;;;;;;;;;;5056121;28;20049;-84
2022/12/04 02:15:00;;;;;;;55.07;28.00;;;;;;;;;;5053358;28;20029;-86
2022/12/04 02:17:45;;;;;;;53.22;27.88;;;;;;;;;;5066255;28;20259;-84
2022/12/04 02:20:14;;;;;;;50.30;27.38;;;;;;;;;;5067629;28;20049;-84
2022/12/04 02:22:52;;;;;;;53.97;30.73;;;;;;;;;;5065768;28;20021;-85
2022/12/04 02:25:18;;;;;;;55.25;30.13;;;;;;;;;;5063913;28;20036;-84
2022/12/04 02:27:51;;;;;;;55.58;28.98;;;;;;;;;;5045620;28;20495;-85
2022/12/04 02:30:17;;;;;;;61.00;28.60;;;;;;;;;;5058632;28;20032;-83
2022/12/04 02:32:52;;;;;;;52.15;29.08;;;;;;;;;;5072974;28;20045;-83
2022/12/04 02:35:18;;;;;;;52.28;27.23;;;;;;;;;;5070031;28;20021;-83
2022/12/04 02:37:46;;;;;;;55.17;29.23;;;;;;;;;;5064276;28;20495;-85
2022/12/04 02:40:12;;;;;;;52.28;28.98;;;;;;;;;;5058331;28;20056;-84
2022/12/04 02:42:40;;;;;;;56.63;27.67;;;;;;;;;;5065111;28;20036;-83
2022/12/04 02:45:09;;;;;;;59.20;29.35;;;;;;;;;;5057853;28;20152;-83
2022/12/04 02:47:36;;;;;;;56.00;30.67;;;;;;;;;;5057035;28;20025;-85
2022/12/04 02:50:04;;;;;;;54.78;29.67;;;;;;;;;;5047721;28;20021;-88
2022/12/04 02:52:39;;;;;;;56.60;28.65;;;;;;;;;;5043635;28;20373;-84
2022/12/04 02:55:07;;;;;;;57.38;31.30;;;;;;;;;;5050116;28;20025;-84
2022/12/04 02:57:35;;;;;;;55.00;30.95;;;;;;;;;;5062920;28;20021;-85
2022/12/04 03:00:04;;;;;;;59.22;29.85;;;;;;;;;;5050342;28;20029;-84
2022/12/04 03:02:30;;;;;;;55.20;30.17;;;;;;;;;;5039894;28;20025;-84
2022/12/04 03:04:57;;;;;;;55.25;30.55;;;;;;;;;;5043465;28;20037;-85
2022/12/04 03:07:27;;;;;;;52.03;29.75;;;;;;;;;;5050840;28;20013;-84
2022/12/04 03:09:59;;;;;;;56.75;31.58;;;;;;;;;;5059813;28;20021;-84
2022/12/04 03:12:57;;;;;;;56.80;30.48;;;;;;;;;;5063048;28;20017;-84
2022/12/04 03:15:29;;;;;;;52.63;28.08;;;;;;;;;;4966241;28;20031;-84
2022/12/04 03:18:01;;;;;;;60.58;31.23;;;;;;;;;;4964547;28;20461;-84
2022/12/04 03:20:28;;;;;;;54.08;29.05;;;;;;;;;;4981756;28;20098;-85
2022/12/04 03:22:57;;;;;;;54.88;28.63;;;;;;;;;;4980333;28;20050;-85
2022/12/04 03:25:28;;;;;;;57.15;28.88;;;;;;;;;;4962115;28;20042;-85
2022/12/04 03:27:57;;;;;;;55.05;29.92;;;;;;;;;;4961535;28;20035;-84
2022/12/04 03:30:23;;;;;;;56.38;30.58;;;;;;;;;;4962697;28;20054;-84
2022/12/04 03:32:52;;;;;;;50.50;27.70;;;;;;;;;;4961117;28;20043;-83
2022/12/04 03:35:21;;;;;;;53.85;29.38;;;;;;;;;;4977193;28;20026;-83
2022/12/04 03:37:47;;;;;;;54.03;30.08;;;;;;;;;;4978624;28;20034;-83
2022/12/04 03:40:32;;;;;;;50.95;29.48;;;;;;;;;;4981101;28;20027;-85
2022/12/04 03:43:03;;;;;;;47.85;27.95;;;;;;;;;;4980961;28;20094;-84
2022/12/04 03:45:47;;;;;;;57.33;31.45;;;;;;;;;;4987964;28;20051;-84
2022/12/04 03:48:21;;;;;;;53.17;28.08;;;;;;;;;;4988033;28;20063;-85
2022/12/04 03:51:08;;;;;;;54.53;29.10;;;;;;;;;;5017270;28;20033;-84
2022/12/04 03:53:54;;;;;;;50.45;27.90;;;;;;;;;;5058887;28;20032;-84
2022/12/04 03:56:22;;;;;;;55.60;30.23;;;;;;;;;;5069920;28;20021;-84
2022/12/04 03:58:57;;;;;;;55.88;30.73;;;;;;;;;;5062591;28;20025;-84
2022/12/04 04:01:27;;;;;;;55.17;30.08;;;;;;;;;;5045969;28;20053;-84
2022/12/04 04:03:54;;;;;;;55.20;28.83;;;;;;;;;;5062092;28;20078;-85
2022/12/04 04:06:25;;;;;;;57.80;31.17;;;;;;;;;;5054037;28;20029;-85
2022/12/04 04:08:53;;;;;;;53.50;30.23;;;;;;;;;;5047422;28;20033;-84
2022/12/04 04:11:26;;;;;;;59.25;31.88;;;;;;;;;;5046252;28;20092;-85
2022/12/04 04:25:03;;;;;;;52.22;27.48;;;;;;;;;;5057450;28;20040;-83
2022/12/04 04:27:29;;;;;;;48.55;29.38;;;;;;;;;;5057615;28;20047;-86
2022/12/04 04:29:55;;;;;;;53.83;30.35;;;;;;;;;;5052738;28;20136;-85
2022/12/04 04:32:21;;;;;;;47.38;29.05;;;;;;;;;;5070493;28;20044;-84
2022/12/04 04:34:47;;;;;;;49.90;28.63;;;;;;;;;;5067060;28;20064;-85
2022/12/04 04:37:20;;;;;;;50.92;27.27;;;;;;;;;;5047826;28;20027;-88
2022/12/04 04:40:06;;;;;;;50.28;27.65;;;;;;;;;;5055318;28;20111;-84
2022/12/04 04:42:35;;;;;;;52.30;28.15;;;;;;;;;;5025735;28;20252;-85
2022/12/04 04:45:06;;;;;;;48.65;27.20;;;;;;;;;;5047824;28;20044;-84
2022/12/04 04:47:38;;;;;;;46.65;27.02;;;;;;;;;;5056276;28;20248;-87
2022/12/04 04:50:06;;;;;;;44.13;25.75;;;;;;;;;;5054566;28;20044;-85
2022/12/04 04:52:33;;;;;;;43.80;25.48;;;;;;;;;;5049774;28;20116;-84
2022/12/04 04:55:00;;;;;;;40.08;24.35;;;;;;;;;;5044570;28;20021;-84
2022/12/04 04:57:27;;;;;;;48.13;25.92;;;;;;;;;;5053286;28;20033;-86
2022/12/04 04:59:53;;;;;;;46.88;25.17;;;;;;;;;;5046214;28;20052;-84
2022/12/04 05:02:19;;;;;;;47.28;24.80;;;;;;;;;;5060485;28;20043;-84
2022/12/04 05:04:45;;;;;;;45.45;26.13;;;;;;;;;;5084173;28;20111;-84
2022/12/04 05:07:11;;;;;;;44.22;25.50;;;;;;;;;;5071440;28;20507;-84
2022/12/04 05:09:37;;;;;;;47.55;26.02;;;;;;;;;;5063255;28;20024;-84
2022/12/04 05:12:03;;;;;;;42.50;24.50;;;;;;;;;;5042165;28;20033;-85
2022/12/04 05:14:30;;;;;;;47.72;25.95;;;;;;;;;;5045475;28;20028;-84
2022/12/04 05:16:56;;;;;;;45.63;24.58;;;;;;;;;;5047290;28;20035;-83
2022/12/04 05:22:07;;;;;;;43.00;23.88;;;;;;;;;;5043974;28;20071;-84
2022/12/04 05:24:33;;;;;;;46.15;25.15;;;;;;;;;;5047751;28;20095;-84
2022/12/04 05:26:59;;;;;;;45.78;23.65;;;;;;;;;;5056073;28;20394;-83
2022/12/04 05:29:25;;;;;;;46.45;25.88;;;;;;;;;;5041478;28;20025;-84
2022/12/04 05:31:51;;;;;;;46.17;24.10;;;;;;;;;;5043353;28;20063;-84
2022/12/04 05:34:17;;;;;;;46.28;24.13;;;;;;;;;;5062634;28;20040;-85
2022/12/04 05:36:43;;;;;;;43.45;24.17;;;;;;;;;;5044318;28;20024;-84
2022/12/04 05:39:09;;;;;;;45.55;23.73;;;;;;;;;;5063451;28;20055;-83
2022/12/04 05:41:35;;;;;;;46.40;24.73;;;;;;;;;;5065712;28;20029;-84
2022/12/04 05:44:01;;;;;;;52.22;26.52;;;;;;;;;;5062466;28;20036;-85
2022/12/04 05:46:27;;;;;;;45.20;24.33;;;;;;;;;;5060973;28;20060;-84
2022/12/04 05:48:53;;;;;;;45.20;23.95;;;;;;;;;;5049619;28;20085;-85
2022/12/04 05:51:19;;;;;;;45.53;25.20;;;;;;;;;;5042779;28;20064;-87
2022/12/04 05:53:45;;;;;;;48.42;25.60;;;;;;;;;;5053491;28;20071;-85
2022/12/04 05:56:11;;;;;;;49.10;27.38;;;;;;;;;;5047400;28;20487;-84
2022/12/04 05:58:37;;;;;;;48.78;23.73;;;;;;;;;;5043010;28;20479;-85
2022/12/04 06:01:22;;;;;;;51.60;25.55;;;;;;;;;;5051869;28;20029;-85
2022/12/04 06:03:48;;;;;;;44.65;24.52;;;;;;;;;;5047288;28;20033;-85
2022/12/04 06:06:19;;;;;;;46.05;25.77;;;;;;;;;;5058787;28;20147;-83
2022/12/04 06:08:45;;;;;;;50.53;25.67;;;;;;;;;;5043622;28;20026;-85
2022/12/04 06:11:12;;;;;;;50.03;25.42;;;;;;;;;;5040341;28;20026;-85
2022/12/04 06:13:39;;;;;;;48.95;25.48;;;;;;;;;;5043787;28;20424;-83
2022/12/04 06:16:06;;;;;;;43.40;24.30;;;;;;;;;;5056329;28;20021;-84
2022/12/04 06:18:31;;;;;;;44.78;24.67;;;;;;;;;;5042786;28;20029;-84
2022/12/04 06:20:58;;;;;;;56.42;26.80;;;;;;;;;;5040137;28;20083;-85
2022/12/04 06:23:24;;;;;;;49.63;27.33;;;;;;;;;;5053944;28;20105;-85
2022/12/04 06:25:50;;;;;;;49.75;25.60;;;;;;;;;;5053338;28;20071;-83
2022/12/04 06:28:16;;;;;;;54.40;24.80;;;;;;;;;;5056850;28;20108;-84
2022/12/04 06:30:42;;;;;;;50.20;27.08;;;;;;;;;;5061928;28;20076;-84
2022/12/04 06:33:08;;;;;;;45.78;26.33;;;;;;;;;;5062517;28;20116;-83
2022/12/04 06:35:34;;;;;;;56.15;26.88;;;;;;;;;;5058960;28;20644;-84
2022/12/04 06:38:00;;;;;;;50.25;26.50;;;;;;;;;;5053252;28;20025;-84
2022/12/04 06:40:26;;;;;;;50.00;26.73;;;;;;;;;;5055572;28;20083;-84
2022/12/04 06:42:52;;;;;;;50.00;26.95;;;;;;;;;;5046539;28;20057;-85
2022/12/04 06:45:18;;;;;;;48.10;25.08;;;;;;;;;;5043000;28;20045;-86
2022/12/04 06:47:44;;;;;;;49.38;25.77;;;;;;;;;;5041742;28;20029;-84
2022/12/04 06:50:10;;;;;;;45.40;25.13;;;;;;;;;;5037754;28;20033;-85
2022/12/04 06:52:36;;;;;;;46.60;24.45;;;;;;;;;;5058299;28;20025;-86
2022/12/04 06:55:07;;;;;;;51.42;24.38;;;;;;;;;;5044205;28;20032;-84
2022/12/04 06:57:34;;;;;;;49.67;25.67;;;;;;;;;;5048757;28;20053;-86
2022/12/04 07:00:00;;;;;;;42.03;23.48;;;;;;;;;;5050477;28;20021;-85
2022/12/04 07:02:26;;;;;;;42.33;22.40;;;;;;;;;;5040931;28;20024;-85
2022/12/04 07:04:55;;;;;;;45.00;22.65;;;;;;;;;;5040067;28;20082;-85
2022/12/04 07:07:21;;;;;;;47.78;24.40;;;;;;;;;;5044760;28;20025;-84
2022/12/04 07:09:48;;;;;;;41.97;23.52;;;;;;;;;;5046413;28;20033;-85
2022/12/04 07:12:14;;;;;;;44.38;22.58;;;;;;;;;;5058841;28;20552;-85
2022/12/04 07:14:40;;;;;;;47.53;24.98;;;;;;;;;;5059211;28;20065;-85
2022/12/04 07:17:06;;;;;;;45.72;22.88;;;;;;;;;;5058253;28;20387;-85
2022/12/04 07:19:32;;;;;;;45.42;22.88;;;;;;;;;;5047465;28;20076;-84
2022/12/04 07:21:58;;;;;;;42.08;21.80;;;;;;;;;;5040243;28;20018;-84
2022/12/04 07:24:24;;;;;;;46.00;22.83;;;;;;;;;;5037842;28;20056;-86
2022/12/04 07:26:50;;;;;;;45.05;21.10;;;;;;;;;;5055469;28;20032;-84
2022/12/04 07:29:16;;;;;;;47.38;22.58;;;;;;;;;;5047640;28;20116;-84
2022/12/04 07:31:43;;;;;;;43.67;20.15;;;;;;;;;;5037150;28;20030;-86
2022/12/04 07:34:09;;;;;;;41.13;21.25;;;;;;;;;;5047919;28;20026;-86
2022/12/04 07:36:35;;;;;;;50.28;22.30;;;;;;;;;;5038627;28;20048;-85
2022/12/04 07:39:01;;;;;;;38.97;21.23;;;;;;;;;;5042457;28;20029;-85
2022/12/04 07:41:27;;;;;;;42.35;22.33;;;;;;;;;;5043951;28;20021;-86
2022/12/04 07:43:53;;;;;;;35.35;19.83;;;;;;;;;;5044511;28;20048;-86
2022/12/04 07:46:21;;;;;;;40.60;21.17;;;;;;;;;;5046300;28;20040;-88
2022/12/04 07:48:47;;;;;;;42.65;22.60;;;;;;;;;;5051801;28;20033;-86
2022/12/04 07:51:12;;;;;;;44.00;23.40;;;;;;;;;;5063492;28;20029;-85
2022/12/04 07:53:39;;;;;;;42.45;19.52;;;;;;;;;;5062419;28;20033;-84
2022/12/04 07:56:05;;;;;;;36.20;20.67;;;;;;;;;;5066358;28;20085;-84
2022/12/04 07:58:32;;;;;;;37.70;20.17;;;;;;;;;;5059179;28;20067;-84
2022/12/04 08:01:05;;;;;;;43.42;21.83;;;;;;;;;;5039696;28;20084;-84
2022/12/04 08:03:31;;;;;;;42.60;21.95;;;;;;;;;;5040583;28;20047;-84
2022/12/04 08:05:59;;;;;;;40.83;20.60;;;;;;;;;;5041151;28;20028;-84
2022/12/04 08:08:25;;;;;;;41.88;20.35;;;;;;;;;;5045753;28;20054;-83
2022/12/04 08:10:51;;;;;;;41.40;21.27;;;;;;;;;;5059427;28;20033;-85
2022/12/04 08:13:17;;;;;;;40.05;19.20;;;;;;;;;;5058445;28;20029;-84
2022/12/04 08:15:43;;;;;;;42.42;20.00;;;;;;;;;;5045185;28;20045;-85
2022/12/04 08:18:09;;;;;;;35.80;18.63;;;;;;;;;;5044618;28;20027;-85
2022/12/04 08:20:35;;;;;;;37.65;19.50;;;;;;;;;;5036884;28;20033;-85
2022/12/04 08:23:01;;;;;;;39.05;18.63;;;;;;;;;;5038386;28;20456;-86
2022/12/04 08:25:27;;;;;;;35.25;18.38;;;;;;;;;;5038506;28;20086;-85
2022/12/04 08:27:53;;;;;;;39.25;18.23;;;;;;;;;;5040738;28;20020;-85
2022/12/04 08:30:19;;;;;;;39.67;20.55;;;;;;;;;;5042036;28;20037;-84
2022/12/04 08:32:46;;;;;;;36.22;18.75;;;;;;;;;;5037492;28;20126;-86
2022/12/04 08:35:12;;;;;;;36.20;19.65;;;;;;;;;;5043071;28;20025;-84
2022/12/04 08:37:38;;;;;;;35.67;19.27;;;;;;;;;;5039600;28;20018;-85
2022/12/04 08:40:05;;;;;;;33.40;17.67;;;;;;;;;;5058659;28;20111;-84
2022/12/04 08:42:31;;;;;;;34.42;17.67;;;;;;;;;;5058360;28;20021;-86
2022/12/04 08:44:57;;;;;;;31.02;15.63;;;;;;;;;;5048314;28;20103;-85
2022/12/04 08:47:23;;;;;;;37.10;17.38;;;;;;;;;;5038412;28;20030;-85
2022/12/04 08:49:49;;;;;;;33.85;16.92;;;;;;;;;;5040983;28;20057;-85
2022/12/04 08:52:15;;;;;;;31.35;17.38;;;;;;;;;;5039646;28;20033;-85
2022/12/04 08:54:41;;;;;;;36.20;18.15;;;;;;;;;;5040166;28;20519;-85
2022/12/04 08:57:07;;;;;;;32.92;16.52;;;;;;;;;;5057676;28;20075;-84
2022/12/04 08:59:33;;;;;;;35.13;18.30;;;;;;;;;;5044118;28;20014;-85
2022/12/04 09:01:59;;;;;;;34.80;17.25;;;;;;;;;;5057015;28;20501;-84
2022/12/04 09:04:25;;;;;;;34.55;17.42;;;;;;;;;;5053379;28;20067;-86
2022/12/04 09:06:51;;;;;;;38.72;18.80;;;;;;;;;;5046791;28;20036;-84
2022/12/04 09:09:17;;;;;;;34.45;17.95;;;;;;;;;;5048841;28;20028;-84
2022/12/04 09:11:44;;;;;;;30.83;17.08;;;;;;;;;;5057751;28;20053;-85
2022/12/04 09:14:10;;;;;;;29.73;16.00;;;;;;;;;;5048377;28;20076;-85
2022/12/04 09:16:36;;;;;;;31.50;16.42;;;;;;;;;;5058430;28;20433;-83
2022/12/04 09:19:03;;;;;;;33.78;17.38;;;;;;;;;;5057979;28;20021;-85
2022/12/04 09:21:29;;;;;;;32.30;15.98;;;;;;;;;;5057581;28;20024;-84
2022/12/04 09:23:55;;;;;;;32.78;16.02;;;;;;;;;;5047294;28;20099;-85
2022/12/04 09:26:26;;;;;;;31.85;16.85;;;;;;;;;;5058427;28;20032;-85
2022/12/04 09:28:53;;;;;;;31.52;16.42;;;;;;;;;;5050280;28;20364;-83
2022/12/04 09:31:19;;;;;;;33.65;17.13;;;;;;;;;;5037354;28;20033;-85
2022/12/04 09:33:45;;;;;;;30.70;15.82;;;;;;;;;;5040561;28;20035;-84
2022/12/04 09:36:17;;;;;;;29.58;15.32;;;;;;;;;;5037291;28;20052;-83
2022/12/04 09:38:44;;;;;;;33.17;16.70;;;;;;;;;;5042491;28;20073;-85
2022/12/04 09:41:43;;;;;;;30.45;16.48;;;;;;;;;;5060311;28;20025;-85
2022/12/04 09:44:41;;;;;;;29.83;16.42;;;;;;;;;;5003044;28;20037;-86
2022/12/04 09:47:22;;;;;;;28.48;14.68;;;;;;;;;;4971690;28;20568;-85
2022/12/04 09:49:53;;;;;;;33.63;16.40;;;;;;;;;;4968404;28;20078;-85
2022/12/04 09:52:19;;;;;;;28.63;15.50;;;;;;;;;;4946556;28;20133;-85
2022/12/04 09:54:45;;;;;;;28.42;16.08;;;;;;;;;;4960190;28;20486;-85
2022/12/04 09:57:23;;;;;;;33.30;16.30;;;;;;;;;;4973177;28;20118;-86
2022/12/04 09:59:50;;;;;;;32.45;16.75;;;;;;;;;;4974143;28;20041;-84
2022/12/04 10:02:45;;;;;;;28.00;15.57;;;;;;;;;;4951706;28;20596;-86
2022/12/04 10:05:16;;;;;;;31.90;16.67;;;;;;;;;;4924290;28;20044;-86
2022/12/04 10:08:00;;;;;;;26.88;15.80;;;;;;;;;;4970373;28;20039;-86
2022/12/04 10:10:40;;;;;;;30.90;16.27;;;;;;;;;;4959879;28;20584;-85
2022/12/04 10:13:22;;;;;;;29.65;15.25;;;;;;;;;;4944444;29;20406;-84
2022/12/04 10:15:53;;;;;;;28.27;15.60;;;;;;;;;;4948605;28;20039;-85
2022/12/04 10:18:28;;;;;;;28.67;16.08;;;;;;;;;;4951386;29;20286;-86
2022/12/04 10:21:15;;;;;;;31.10;15.75;;;;;;;;;;4977757;28;20034;-86
2022/12/04 10:23:44;;;;;;;27.70;15.65;;;;;;;;;;5039214;28;20040;-86
2022/12/04 10:26:15;;;;;;;32.63;17.17;;;;;;;;;;5069642;28;20031;-86
2022/12/04 10:28:44;;;;;;;28.38;16.05;;;;;;;;;;5046329;28;20119;-86
2022/12/04 10:31:12;;;;;;;31.25;17.17;;;;;;;;;;5058625;28;20033;-85
2022/12/04 10:33:40;;;;;;;38.03;17.55;;;;;;;;;;5049754;28;20115;-84
2022/12/04 10:36:10;;;;;;;28.23;16.38;;;;;;;;;;5057850;28;20024;-85
2022/12/04 10:38:39;;;;;;;28.17;15.43;;;;;;;;;;5040994;28;20029;-85
2022/12/04 10:41:29;;;;;;;30.85;16.60;;;;;;;;;;5055089;28;20271;-86
2022/12/04 10:43:55;;;;;;;28.13;13.63;;;;;;;;;;5033300;28;20037;-86
2022/12/04 10:46:26;;;;;;;26.73;15.75;;;;;;;;;;5035888;28;20487;-87
2022/12/04 10:48:59;;;;;;;30.85;15.50;;;;;;;;;;5043523;28;20028;-86
2022/12/04 10:51:25;;;;;;;30.55;16.38;;;;;;;;;;5042159;28;20565;-85
2022/12/04 10:53:55;;;;;;;31.02;16.15;;;;;;;;;;5052412;28;20029;-86
2022/12/04 10:56:25;;;;;;;28.65;14.55;;;;;;;;;;5062740;28;20026;-84
2022/12/04 10:59:02;;;;;;;32.55;17.88;;;;;;;;;;5052129;28;20104;-85
2022/12/04 11:01:30;;;;;;;26.65;15.45;;;;;;;;;;5060630;28;20032;-84
2022/12/04 11:04:07;;;;;;;31.48;15.48;;;;;;;;;;5054808;28;20029;-86
2022/12/04 11:06:33;;;;;;;33.33;16.85;;;;;;;;;;5038715;28;20510;-85
2022/12/04 11:08:59;;;;;;;28.55;15.88;;;;;;;;;;5037899;28;20037;-85
2022/12/04 11:11:28;;;;;;;28.35;15.70;;;;;;;;;;5045583;28;20159;-86
2022/12/04 11:14:01;;;;;;;29.65;16.67;;;;;;;;;;5036693;28;20025;-86
2022/12/04 11:16:33;;;;;;;32.92;16.80;;;;;;;;;;5038494;28;20025;-87
2022/12/04 11:18:59;;;;;;;35.15;17.38;;;;;;;;;;5052398;28;20071;-85
2022/12/04 11:21:27;;;;;;;30.45;16.45;;;;;;;;;;5057725;28;20048;-85
2022/12/04 11:23:53;;;;;;;34.05;17.10;;;;;;;;;;5040446;28;20132;-86
2022/12/04 11:26:33;;;;;;;32.67;17.48;;;;;;;;;;5044122;28;20046;-85
2022/12/04 11:29:04;;;;;;;29.05;14.98;;;;;;;;;;5065039;28;20055;-86
2022/12/04 11:31:31;;;;;;;27.17;15.02;;;;;;;;;;5066438;28;20021;-85
2022/12/04 11:34:02;;;;;;;29.92;15.55;;;;;;;;;;5047612;28;20210;-86
2022/12/04 11:36:30;;;;;;;30.98;16.27;;;;;;;;;;5036190;28;20121;-87
2022/12/04 11:39:22;;;;;;;34.25;17.58;;;;;;;;;;5048775;28;20021;-86
2022/12/04 11:41:58;;;;;;;31.10;16.80;;;;;;;;;;5041296;28;20373;-85
2022/12/04 11:44:29;;;;;;;34.55;16.70;;;;;;;;;;5049186;28;20287;-85
2022/12/04 11:46:56;;;;;;;34.72;17.23;;;;;;;;;;5065986;28;20135;-84
2022/12/04 11:49:23;;;;;;;30.17;15.77;;;;;;;;;;5056777;28;20025;-86
2022/12/04 11:52:03;;;;;;;30.35;16.08;;;;;;;;;;5051230;28;20030;-85
2022/12/04 11:54:35;;;;;;;30.48;16.77;;;;;;;;;;5051073;28;20117;-85
2022/12/04 11:57:01;;;;;;;29.63;16.17;;;;;;;;;;5048029;28;20017;-84
2022/12/04 11:59:45;;;;;;;27.08;15.25;;;;;;;;;;5040489;28;20026;-86
2022/12/04 12:02:22;;;;;;;28.85;15.32;;;;;;;;;;5052763;28;20049;-85
2022/12/04 12:05:02;;;;;;;23.75;13.90;;;;;;;;;;5041239;28;20034;-84
2022/12/04 12:07:36;;;;;;;27.27;14.15;;;;;;;;;;5039413;28;20396;-85
2022/12/04 12:10:05;;;;;;;27.08;14.50;;;;;;;;;;5040648;28;20163;-85
2022/12/04 12:12:46;;;;;;;25.33;14.70;;;;;;;;;;5043250;28;20091;-84
2022/12/04 12:15:24;;;;;;;28.13;14.20;;;;;;;;;;5045671;28;20060;-85
2022/12/04 12:18:03;;;;;;;24.20;14.18;;;;;;;;;;5035956;28;20067;-85
2022/12/04 12:20:29;;;;;;;22.17;13.20;;;;;;;;;;5034824;28;20021;-84
2022/12/04 12:23:07;;;;;;;24.48;14.07;;;;;;;;;;5036104;28;20427;-85
2022/12/04 12:25:49;;;;;;;27.73;13.85;;;;;;;;;;5050837;28;20033;-83
2022/12/04 12:28:39;;;;;;;21.17;13.40;;;;;;;;;;5039956;28;20025;-85
2022/12/04 12:31:05;;;;;;;24.48;14.85;;;;;;;;;;5010027;28;20022;-83
2022/12/04 12:33:36;;;;;;;25.50;13.52;;;;;;;;;;5044804;28;20089;-84
2022/12/04 12:36:08;;;;;;;22.45;13.27;;;;;;;;;;5058551;28;20045;-84
2022/12/04 12:38:34;;;;;;;23.17;13.47;;;;;;;;;;5053980;28;20076;-84
2022/12/04 12:41:03;;;;;;;27.63;13.88;;;;;;;;;;5036938;28;20404;-85
2022/12/04 12:43:29;;;;;;;21.80;13.82;;;;;;;;;;5054406;28;20051;-85
2022/12/04 12:45:55;;;;;;;25.95;13.98;;;;;;;;;;5048382;28;20041;-85
2022/12/04 12:48:28;;;;;;;24.17;14.38;;;;;;;;;;5057362;28;20029;-84
2022/12/04 12:51:12;;;;;;;24.98;13.98;;;;;;;;;;5055857;28;20029;-86
2022/12/04 12:53:40;;;;;;;24.73;14.10;;;;;;;;;;5041151;28;20035;-86
2022/12/04 12:56:08;;;;;;;25.33;15.68;;;;;;;;;;5057692;28;20022;-85
2022/12/04 12:58:38;;;;;;;23.92;13.90;;;;;;;;;;5052062;28;20075;-85
2022/12/04 13:01:21;;;;;;;26.23;15.02;;;;;;;;;;5052946;28;20029;-86
2022/12/04 13:03:59;;;;;;;26.00;14.60;;;;;;;;;;5046590;28;20469;-86
2022/12/04 13:06:29;;;;;;;22.13;13.18;;;;;;;;;;5043363;28;20494;-86
2022/12/04 13:09:01;;;;;;;22.10;13.65;;;;;;;;;;5049859;28;20060;-85
2022/12/04 13:11:28;;;;;;;22.83;12.00;;;;;;;;;;5039516;28;20549;-85
2022/12/04 13:13:56;;;;;;;20.17;12.50;;;;;;;;;;5039860;28;20044;-84
2022/12/04 13:16:27;;;;;;;23.95;13.70;;;;;;;;;;5039326;28;20022;-82
2022/12/04 13:19:04;;;;;;;22.08;12.15;;;;;;;;;;5041507;28;20017;-85
2022/12/04 13:21:30;;;;;;;19.88;12.27;;;;;;;;;;5057353;28;20020;-85
2022/12/04 13:24:12;;;;;;;20.88;12.95;;;;;;;;;;5046995;28;20033;-84
2022/12/04 13:26:38;;;;;;;24.52;13.25;;;;;;;;;;5046920;28;20088;-86
2022/12/04 13:29:23;;;;;;;22.92;13.05;;;;;;;;;;5040136;28;20029;-85
2022/12/04 13:31:55;;;;;;;24.33;14.10;;;;;;;;;;5040828;28;20029;-85
2022/12/04 13:34:33;;;;;;;23.88;12.90;;;;;;;;;;5047906;28;20483;-86
2022/12/04 13:37:02;;;;;;;20.67;12.82;;;;;;;;;;5055484;28;20472;-84
2022/12/04 13:39:47;;;;;;;24.05;14.82;;;;;;;;;;5038289;28;20045;-86
2022/12/04 13:42:26;;;;;;;20.85;12.25;;;;;;;;;;5056214;28;20029;-85
2022/12/04 13:44:54;;;;;;;25.58;12.75;;;;;;;;;;5056920;28;20037;-85
2022/12/04 13:47:31;;;;;;;23.38;13.70;;;;;;;;;;5060171;28;20104;-85
2022/12/04 13:50:16;;;;;;;27.55;13.60;;;;;;;;;;5059054;28;20025;-84
2022/12/04 13:52:42;;;;;;;20.35;12.63;;;;;;;;;;5051058;28;20329;-84
2022/12/04 13:55:27;;;;;;;21.70;13.23;;;;;;;;;;5038788;28;20171;-86
2022/12/04 13:58:03;;;;;;;22.10;13.50;;;;;;;;;;5045058;28;20039;-83
2022/12/04 14:00:32;;;;;;;19.90;11.68;;;;;;;;;;5041998;28;20100;-84
2022/12/04 14:03:00;;;;;;;22.33;12.30;;;;;;;;;;5041700;28;20021;-83
2022/12/04 14:05:28;;;;;;;20.52;12.55;;;;;;;;;;5039521;28;20021;-83
2022/12/04 14:08:19;;;;;;;19.83;13.48;;;;;;;;;;5042650;28;20368;-85
2022/12/04 14:11:06;;;;;;;17.77;11.77;;;;;;;;;;5058242;28;20059;-86
2022/12/04 14:13:45;;;;;;;20.40;10.95;;;;;;;;;;5058477;28;20076;-86
2022/12/04 14:16:20;;;;;;;18.92;12.32;;;;;;;;;;5057507;28;20406;-84
2022/12/04 14:18:52;;;;;;;18.63;11.02;;;;;;;;;;5048653;28;20030;-88
2022/12/04 14:21:18;;;;;;;20.33;11.70;;;;;;;;;;5042532;28;20016;-86
2022/12/04 14:23:44;;;;;;;18.17;11.55;;;;;;;;;;5075472;28;20040;-85
2022/12/04 14:26:21;;;;;;;18.55;11.20;;;;;;;;;;5080764;28;20028;-87
2022/12/04 14:28:47;;;;;;;18.98;12.07;;;;;;;;;;5039987;28;20026;-87
2022/12/04 14:31:16;;;;;;;22.58;12.30;;;;;;;;;;5039794;28;20028;-87
2022/12/04 14:34:03;;;;;;;20.17;12.07;;;;;;;;;;5040163;28;20080;-87
2022/12/04 14:36:42;;;;;;;19.17;11.48;;;;;;;;;;5052838;28;20036;-86
2022/12/04 14:39:12;;;;;;;21.73;12.65;;;;;;;;;;5059591;28;20025;-86
2022/12/04 14:41:38;;;;;;;21.30;13.10;;;;;;;;;;5059206;28;20017;-87
2022/12/04 14:44:04;;;;;;;21.88;11.98;;;;;;;;;;5058516;28;20036;-87